createdAt,value
2022-08-08T00:07:38.277Z,54.16
2022-08-08T00:19:39.468Z,56.39
2022-08-08T00:32:20.329Z,55.51
2022-08-08T00:43:41.000Z,58.20
2022-08-08T00:55:54.098Z,56.40
2022-08-08T01:07:56.462Z,54.61
2022-08-08T01:19:52.412Z,54.43
2022-08-08T01:32:12.785Z,57.19
2022-08-08T01:43:41.904Z,54.58
2022-08-08T01:56:28.908Z,58.29
2022-08-08T02:07:48.879Z,56.41
2022-08-08T02:20:07.506Z,56.45
2022-08-08T02:31:59.150Z,57.45
2022-08-08T02:44:37.850Z,58.77
2022-08-08T02:55:44.626Z,57.24
2022-08-08T03:07:58.530Z,56.74
2022-08-08T03:19:50.434Z,58.88
2022-08-08T03:32:06.639Z,64.72
2022-08-08T03:43:46.436Z,61.64
2022-08-08T03:55:57.862Z,63.12
2022-08-08T04:07:47.375Z,65.36
2022-08-08T04:19:47.776Z,65.85
2022-08-08T04:31:58.716Z,66.72
2022-08-08T04:43:54.196Z,63.92
2022-08-08T04:55:56.069Z,63.72
2022-08-08T05:07:50.038Z,64.01
2022-08-08T05:20:09.692Z,63.33
2022-08-08T05:32:03.421Z,64.60
2022-08-08T05:44:03.254Z,61.49
2022-08-08T05:56:07.724Z,55.22
2022-08-08T06:07:52.058Z,51.80
2022-08-08T06:19:52.329Z,51.44
2022-08-08T06:32:10.030Z,50.57
2022-08-08T06:43:57.514Z,51.67
2022-08-08T06:56:02.056Z,49.07
2022-08-08T07:07:55.222Z,48.06
2022-08-08T07:19:59.772Z,46.29
2022-08-08T07:31:55.091Z,45.58
2022-08-08T07:43:55.503Z,43.96
2022-08-08T07:55:56.011Z,41.89
2022-08-08T08:07:56.470Z,42.06
2022-08-08T08:19:56.897Z,42.59
2022-08-08T08:31:58.220Z,42.66
2022-08-08T08:44:14.009Z,43.64
2022-08-08T08:56:02.572Z,44.26
2022-08-08T09:08:13.137Z,44.45
2022-08-08T09:21:56.002Z,44.10
2022-08-08T09:31:59.637Z,43.35
2022-08-08T09:44:06.112Z,44.85
2022-08-08T09:56:04.385Z,43.32
2022-08-08T10:08:01.445Z,42.64
2022-08-08T10:20:01.475Z,43.93
2022-08-08T10:32:01.912Z,44.26
2022-08-08T10:44:02.366Z,44.19
2022-08-08T10:56:02.806Z,41.72
2022-08-08T11:08:36.875Z,42.60
2022-08-08T11:20:11.058Z,44.38
2022-08-08T11:32:04.222Z,43.33
2022-08-08T11:44:04.655Z,43.49
2022-08-08T11:56:05.098Z,42.34
2022-08-08T12:08:05.557Z,42.56
2022-08-08T12:20:06.875Z,43.22
2022-08-08T12:32:09.660Z,41.38
2022-08-08T12:44:06.890Z,43.65
2022-08-08T12:56:18.214Z,42.26
2022-08-08T13:08:07.822Z,42.08
2022-08-08T13:20:08.780Z,38.48
2022-08-08T13:32:10.851Z,38.87
2022-08-08T13:44:11.086Z,38.33
2022-08-08T13:56:11.888Z,40.13
2022-08-08T14:08:11.676Z,39.01
2022-08-08T14:20:15.580Z,39.33
2022-08-08T14:32:16.052Z,39.49
2022-08-08T14:44:13.301Z,40.28
2022-08-08T14:56:12.121Z,42.47
2022-08-08T15:08:12.802Z,41.63
2022-08-08T15:20:13.955Z,42.97
2022-08-08T15:32:20.881Z,44.10
2022-08-08T15:44:14.017Z,44.18
2022-08-08T15:56:14.170Z,43.64
2022-08-08T16:08:14.644Z,45.26
2022-08-08T16:20:15.099Z,43.48
2022-08-08T16:32:20.968Z,42.26
2022-08-08T16:44:16.002Z,43.11
2022-08-08T16:56:16.514Z,43.28
2022-08-08T17:08:16.918Z,44.57
2022-08-08T17:20:18.196Z,44.95
2022-08-08T17:32:17.790Z,42.28
2022-08-08T17:44:18.303Z,46.87
2022-08-08T17:56:18.753Z,45.96
2022-08-08T18:08:24.586Z,46.08
2022-08-08T18:20:37.149Z,47.35
2022-08-08T18:32:20.369Z,47.96
2022-08-08T18:44:20.541Z,49.17
2022-08-08T18:56:21.030Z,48.74
2022-08-08T19:08:25.690Z,49.26
2022-08-08T19:20:22.009Z,49.71
2022-08-08T19:32:22.997Z,51.95
2022-08-08T19:44:26.855Z,49.47
2022-08-08T19:56:25.570Z,50.42
2022-08-08T20:08:29.240Z,52.08
2022-08-08T20:20:24.190Z,53.75
2022-08-08T20:32:25.051Z,54.12
2022-08-08T20:44:25.299Z,55.02
2022-08-08T20:56:35.393Z,53.51
2022-08-08T21:08:36.356Z,53.78
2022-08-08T21:20:33.989Z,52.79
2022-08-08T21:32:26.906Z,55.30
2022-08-08T21:44:27.403Z,54.48
2022-08-08T21:56:32.789Z,54.51
2022-08-08T22:08:28.296Z,53.95
2022-08-08T22:20:28.730Z,54.56
2022-08-08T22:32:29.224Z,55.60
2022-08-08T22:44:29.644Z,56.86
2022-08-08T22:56:30.100Z,57.58
2022-08-08T23:08:44.142Z,56.65
2022-08-08T23:20:31.045Z,57.37
2022-08-08T23:32:31.714Z,58.07
2022-08-08T23:44:31.910Z,58.76
2022-08-08T23:56:34.067Z,59.15
